Kuching International Airport Kuching MY
ICAO: WBGG
IATA: KCH
Category: Medium
Scheduled Services: Yes

Elevation: 89 ft
TransAlt. 11000 ft.

Airport Communications:
RDR:134.5
APP DIRECTOR:120.2
ATIS:128.4
GND:121.9
TWR:118.1

WBGG Zoom In..

Runways:

(A) RW 07 length 12402 ft width 151 ft
---- / hdg 68

(B) RW 25 length 12402 ft width 151 ft
ILS 110.30 / hdg 248

Location; WBGG
Day. 05 / Time. 15.00 Zulu
* QNH: 1009
* Temperature: 26° c. 78.8°f.
* Wind from: VRB° Speed 02 kn.
Dewpoint: 25° c.
Visibility: 10 km or more.
Clouds: Few 2000 ft.
No significant changes expected in the near future.

WBGG 051500Z VRB02KT 9999 FEW020 26/25 Q1009 NOSIG

Going to: --> -->


Wind From VRB°
Speed 02 kn.

 
 
jpsmedia worldairports.se 2020   terms of use